Time;durP1;ratioP1;P1;durP2;ratioP2;P2;SDS_P1;SDS_P2;PMS_P1;PMS_P2;Temp;Humidity;BMP_temperature;BMP_pressure;BME280_temperature;BME280_humidity;BME280_pressure;Samples;Min_cycle;Max_cycle;Signal;HPM_P1;HPM_P2
2022/05/30 00:00:20;;;;;;;6.95;2.22;;;8.60;99.90;;;;;;5054250;28;20040;-86
2022/05/30 00:02:47;;;;;;;7.88;2.40;;;8.50;99.90;;;;;;5045082;28;20032;-85
2022/05/30 00:05:14;;;;;;;6.47;2.50;;;8.50;99.90;;;;;;5070774;28;20040;-85
2022/05/30 00:07:40;;;;;;;7.68;2.80;;;8.50;99.90;;;;;;5071330;28;20503;-86
2022/05/30 00:10:09;;;;;;;8.73;2.53;;;8.50;99.90;;;;;;5069684;28;20826;-86
2022/05/30 00:12:35;;;;;;;8.05;2.53;;;8.50;99.90;;;;;;5056677;28;20036;-85
2022/05/30 00:15:01;;;;;;;;;;;8.40;99.90;;;;;;5027637;28;20052;-85
2022/05/30 00:17:27;;;;;;;5.90;2.70;;;8.40;99.90;;;;;;5054145;28;19925;-84
2022/05/30 00:19:52;;;;;;;5.50;2.77;;;8.30;99.90;;;;;;5039739;28;20040;-86
2022/05/30 00:22:18;;;;;;;7.37;2.33;;;8.20;99.90;;;;;;5027407;28;20132;-85
2022/05/30 00:24:44;;;;;;;7.90;2.60;;;8.20;99.90;;;;;;5054630;28;20290;-85
2022/05/30 00:27:11;;;;;;;8.63;2.67;;;8.30;99.90;;;;;;5025393;28;20049;-85
2022/05/30 00:29:38;;;;;;;7.60;2.90;;;8.10;99.90;;;;;;5034290;28;20044;-85
2022/05/30 00:32:05;;;;;;;7.07;2.47;;;8.10;99.90;;;;;;5034003;28;20044;-85
2022/05/30 00:34:32;;;;;;;7.55;2.60;;;8.10;99.90;;;;;;5054211;28;20037;-85
2022/05/30 00:36:58;;;;;;;8.15;2.92;;;8.00;99.90;;;;;;5038002;28;20059;-85
2022/05/30 00:39:24;;;;;;;5.85;2.40;;;8.00;99.90;;;;;;5038111;28;20045;-85
2022/05/30 00:41:50;;;;;;;8.57;3.13;;;8.00;99.90;;;;;;5021773;28;20047;-85
2022/05/30 00:44:16;;;;;;;5.83;2.60;;;8.90;99.90;;;;;;5054499;28;20045;-85
2022/05/30 00:46:41;;;;;;;6.78;2.65;;;7.90;99.90;;;;;;5037966;28;20651;-86
2022/05/30 00:49:11;;;;;;;6.03;2.50;;;7.90;99.90;;;;;;5021497;28;20047;-84
2022/05/30 00:51:47;;;;;;;7.35;2.40;;;7.90;99.90;;;;;;5021562;28;20072;-85
2022/05/30 00:54:19;;;;;;;5.88;2.38;;;7.90;99.90;;;;;;5054270;28;20124;-85
2022/05/30 00:56:50;;;;;;;4.15;2.30;;;7.90;99.90;;;;;;5037964;28;20037;-86
2022/05/30 00:59:16;;;;;;;5.95;2.65;;;7.80;99.90;;;;;;5021263;28;20496;-85
2022/05/30 01:01:42;;;;;;;5.25;2.42;;;7.80;99.90;;;;;;5037459;28;20052;-85
2022/05/30 01:06:57;;;;;;;4.00;2.40;;;7.80;99.90;;;;;;5037759;28;20049;-85
2022/05/30 01:09:26;;;;;;;5.97;2.45;;;7.70;99.90;;;;;;5021087;28;20045;-85
2022/05/30 01:12:06;;;;;;;6.57;2.15;;;7.70;99.90;;;;;;5054439;28;20040;-85
2022/05/30 01:14:36;;;;;;;5.43;2.42;;;7.70;99.90;;;;;;5037819;28;20090;-85
2022/05/30 01:17:05;;;;;;;4.32;2.20;;;7.80;99.90;;;;;;5037521;28;20481;-86
2022/05/30 01:20:06;;;;;;;5.40;2.17;;;7.60;99.90;;;;;;5037813;28;20045;-84
2022/05/30 01:23:00;;;;;;;6.45;2.53;;;7.60;99.90;;;;;;5037309;28;20041;-85
2022/05/30 01:25:45;;;;;;;7.80;2.30;;;7.60;99.90;;;;;;5053800;28;20040;-85
2022/05/30 01:28:33;;;;;;;5.63;2.25;;;7.60;99.90;;;;;;5053926;28;20033;-85
2022/05/30 01:30:58;;;;;;;4.25;2.08;;;7.60;99.90;;;;;;5053892;28;20137;-84
2022/05/30 01:33:24;;;;;;;7.90;2.80;;;7.90;99.90;;;;;;5053998;28;20489;-84
2022/05/30 01:35:50;;;;;;;7.25;2.53;;;7.50;99.90;;;;;;5037245;28;20041;-85
2022/05/30 01:38:16;;;;;;;4.17;2.43;;;7.50;99.90;;;;;;5020757;28;20081;-85
2022/05/30 01:40:41;;;;;;;7.57;2.67;;;7.60;99.90;;;;;;5020828;28;20041;-86
2022/05/30 01:43:07;;;;;;;5.70;2.50;;;7.50;99.90;;;;;;5020295;28;20043;-85
2022/05/30 01:45:33;;;;;;;6.03;2.40;;;7.70;99.90;;;;;;5036965;28;20087;-85
2022/05/30 01:47:59;;;;;;;4.23;2.60;;;7.50;99.90;;;;;;5020654;28;20041;-85
2022/05/30 01:50:28;;;;;;;6.03;2.40;;;7.50;99.90;;;;;;5037109;28;20371;-85
2022/05/30 01:52:53;;;;;;;6.10;2.70;;;7.50;99.90;;;;;;5036982;28;20072;-85
2022/05/30 01:55:19;;;;;;;7.33;2.90;;;7.50;99.90;;;;;;5036763;28;20155;-84
2022/05/30 01:57:44;;;;;;;3.87;2.17;;;7.50;99.90;;;;;;5020354;28;20033;-85
2022/05/30 02:00:11;;;;;;;6.67;2.20;;;7.50;99.90;;;;;;5036689;28;20280;-85
2022/05/30 02:02:37;;;;;;;4.30;2.20;;;7.60;99.90;;;;;;5020185;28;20037;-84
2022/05/30 02:05:05;;;;;;;4.68;2.28;;;7.60;99.90;;;;;;5036373;28;20047;-85
2022/05/30 02:07:31;;;;;;;6.65;2.28;;;7.80;99.90;;;;;;5036583;28;20131;-85
2022/05/30 02:09:56;;;;;;;8.45;2.40;;;7.70;99.90;;;;;;5019952;28;20045;-86
2022/05/30 02:12:22;;;;;;;7.68;2.95;;;7.70;99.90;;;;;;5036090;28;20059;-85
2022/05/30 02:14:48;;;;;;;7.13;2.28;;;8.40;99.90;;;;;;5020283;28;20041;-85
2022/05/30 02:17:14;;;;;;;5.23;2.80;;;7.60;99.90;;;;;;5035752;28;20128;-84
2022/05/30 02:19:42;;;;;;;5.43;2.63;;;7.60;99.90;;;;;;5036115;28;20045;-86
2022/05/30 02:22:17;;;;;;;4.97;2.53;;;7.60;99.90;;;;;;5035873;28;20045;-86
2022/05/30 02:24:43;;;;;;;4.78;2.65;;;7.50;99.90;;;;;;5036282;28;20124;-85
2022/05/30 02:27:12;;;;;;;4.47;2.58;;;7.50;99.90;;;;;;5046655;28;20082;-86
2022/05/30 02:29:38;;;;;;;6.03;2.80;;;7.50;99.90;;;;;;5039491;28;20084;-85
2022/05/30 02:32:04;;;;;;;5.53;2.55;;;7.50;99.90;;;;;;5047236;28;20031;-85
2022/05/30 02:37:14;;;;;;;5.45;2.63;;;7.40;99.90;;;;;;5030641;28;20074;-85
2022/05/30 02:39:40;;;;;;;5.90;3.22;;;7.40;99.90;;;;;;5045136;28;20043;-85
2022/05/30 02:42:07;;;;;;;5.05;2.85;;;7.40;99.90;;;;;;5023155;28;20044;-85
2022/05/30 02:44:34;;;;;;;4.38;2.65;;;7.40;99.90;;;;;;5039677;28;20454;-85
2022/05/30 02:47:00;;;;;;;6.43;2.58;;;7.30;99.90;;;;;;5055454;28;20040;-85
2022/05/30 02:49:26;;;;;;;5.50;2.53;;;7.60;99.90;;;;;;5046010;28;20534;-84
2022/05/30 02:51:52;;;;;;;4.60;2.70;;;7.20;99.90;;;;;;5056140;28;20032;-85
2022/05/30 02:54:19;;;;;;;5.50;2.90;;;7.10;99.90;;;;;;5038139;28;20519;-84
2022/05/30 02:56:50;;;;;;;4.75;2.38;;;7.20;99.90;;;;;;4999224;28;20037;-85
2022/05/30 02:59:15;;;;;;;12.65;2.83;;;7.10;99.90;;;;;;5015810;28;20048;-84
2022/05/30 03:01:41;;;;;;;4.22;2.55;;;7.30;99.90;;;;;;5015651;28;20054;-84
2022/05/30 03:04:07;;;;;;;4.13;2.30;;;7.10;99.90;;;;;;5015686;28;20045;-84
2022/05/30 03:06:33;;;;;;;3.72;2.00;;;7.60;99.90;;;;;;4999866;28;20038;-85
2022/05/30 03:08:59;;;;;;;;;;;7.10;99.90;;;;;;5032493;28;20060;-86
2022/05/30 03:11:25;;;;;;;3.08;2.10;;;8.10;99.90;;;;;;5032411;28;19917;-85
2022/05/30 03:13:51;;;;;;;3.55;2.45;;;7.20;99.90;;;;;;5032331;28;20095;-85
2022/05/30 03:16:17;;;;;;;3.35;2.05;;;7.20;99.90;;;;;;4999376;28;20080;-85
2022/05/30 03:18:43;;;;;;;3.17;1.93;;;7.20;99.90;;;;;;5032249;28;20073;-86
2022/05/30 03:21:10;;;;;;;3.15;2.03;;;8.40;99.90;;;;;;5031531;28;20288;-85
2022/05/30 03:23:36;;;;;;;2.50;1.98;;;7.20;99.90;;;;;;5018150;28;20029;-85
2022/05/30 03:26:02;;;;;;;;;;;7.30;99.90;;;;;;5000410;28;20140;-85
2022/05/30 03:28:28;;;;;;;3.67;1.88;;;7.30;99.90;;;;;;5015709;28;19925;-85
2022/05/30 03:30:54;;;;;;;4.17;1.90;;;7.40;99.90;;;;;;5015250;28;20041;-85
2022/05/30 03:33:19;;;;;;;2.63;1.95;;;7.40;99.90;;;;;;5015194;28;20040;-85
2022/05/30 03:35:46;;;;;;;2.63;2.00;;;7.70;99.90;;;;;;5015245;28;20497;-85
2022/05/30 03:38:13;;;;;;;4.95;2.20;;;8.10;99.90;;;;;;5031468;28;20048;-85
2022/05/30 03:40:39;;;;;;;4.57;2.17;;;7.50;99.90;;;;;;5015136;28;20072;-86
2022/05/30 03:43:08;;;;;;;4.00;2.13;;;7.50;99.90;;;;;;5015050;28;20042;-86
2022/05/30 03:45:40;;;;;;;5.55;2.00;;;8.30;99.90;;;;;;5015640;28;20049;-86
2022/05/30 03:48:07;;;;;;;3.75;2.10;;;7.60;99.90;;;;;;5015254;28;20052;-85
2022/05/30 03:50:32;;;;;;;4.13;2.40;;;7.70;99.90;;;;;;5014996;28;20099;-85
2022/05/30 03:53:04;;;;;;;4.03;2.37;;;7.70;99.90;;;;;;5036972;28;20443;-85
2022/05/30 03:55:42;;;;;;;5.38;2.60;;;7.70;99.90;;;;;;5054730;28;20270;-85
2022/05/30 03:58:12;;;;;;;5.70;2.60;;;7.70;99.90;;;;;;5037478;28;20044;-86
2022/05/30 04:00:40;;;;;;;3.28;2.22;;;7.80;99.90;;;;;;5021598;28;20040;-86
2022/05/30 04:03:07;;;;;;;4.22;2.05;;;7.80;99.90;;;;;;5054339;28;20083;-85
2022/05/30 04:05:33;;;;;;;3.70;2.33;;;8.60;99.90;;;;;;5054687;28;20097;-85
2022/05/30 04:07:59;;;;;;;5.38;2.42;;;8.00;99.90;;;;;;5036443;28;20048;-84
2022/05/30 04:10:25;;;;;;;4.93;1.95;;;8.20;99.90;;;;;;5037849;28;20120;-84
2022/05/30 04:12:58;;;;;;;3.38;2.00;;;8.00;99.90;;;;;;5037861;28;20045;-85
2022/05/30 04:15:23;;;;;;;6.60;2.03;;;8.10;99.90;;;;;;5022242;28;20040;-84
2022/05/30 04:17:49;;;;;;;5.88;2.10;;;8.10;99.90;;;;;;5054438;28;20040;-85
2022/05/30 04:20:16;;;;;;;8.82;2.80;;;8.20;99.90;;;;;;5053982;28;20145;-84
2022/05/30 04:22:44;;;;;;;4.57;2.10;;;8.10;99.90;;;;;;5054370;28;20941;-84
2022/05/30 04:25:10;;;;;;;3.10;2.03;;;8.20;99.90;;;;;;5021343;28;20090;-85
2022/05/30 04:27:36;;;;;;;5.95;2.33;;;8.20;99.90;;;;;;5037861;28;20045;-87
2022/05/30 04:30:04;;;;;;;7.25;2.25;;;8.20;99.90;;;;;;5054099;28;20037;-84
2022/05/30 04:32:30;;;;;;;6.40;2.15;;;8.30;99.90;;;;;;5037575;28;20044;-86
2022/05/30 04:34:55;;;;;;;3.45;2.03;;;8.50;99.90;;;;;;5037824;28;20044;-85
2022/05/30 04:37:21;;;;;;;6.32;2.53;;;8.40;99.90;;;;;;5054193;28;20032;-86
2022/05/30 04:39:47;;;;;;;4.13;1.97;;;8.50;99.90;;;;;;5054145;28;20488;-86
2022/05/30 04:42:12;;;;;;;5.37;2.10;;;8.50;99.90;;;;;;5037352;28;20442;-86
2022/05/30 04:44:38;;;;;;;4.57;2.30;;;8.50;99.90;;;;;;5037618;28;20848;-86
2022/05/30 04:47:05;;;;;;;5.13;2.03;;;8.50;99.90;;;;;;5053782;28;20093;-86
2022/05/30 04:49:31;;;;;;;3.63;2.30;;;8.50;99.90;;;;;;5037416;28;20040;-86
2022/05/30 04:51:57;;;;;;;5.13;2.22;;;8.50;99.90;;;;;;5054051;28;20033;-85
2022/05/30 04:54:24;;;;;;;3.83;2.00;;;8.60;99.90;;;;;;5053399;28;20045;-85
2022/05/30 04:56:51;;;;;;;7.30;2.08;;;8.60;99.90;;;;;;5037589;28;20045;-85
2022/05/30 04:59:17;;;;;;;4.72;1.95;;;8.60;99.90;;;;;;5053585;28;20118;-85
2022/05/30 05:01:42;;;;;;;5.30;2.10;;;9.20;99.90;;;;;;5037565;28;20080;-85
2022/05/30 05:04:11;;;;;;;4.97;2.30;;;8.70;99.90;;;;;;5037068;28;20310;-84
2022/05/30 05:06:38;;;;;;;4.57;2.10;;;8.70;99.90;;;;;;5037551;28;20763;-85
2022/05/30 05:09:15;;;;;;;4.28;2.05;;;8.80;99.90;;;;;;5036918;28;20408;-85
2022/05/30 05:11:42;;;;;;;6.22;2.55;;;8.70;99.90;;;;;;5053917;28;20488;-85
2022/05/30 05:14:08;;;;;;;5.63;2.05;;;8.80;99.90;;;;;;5037139;28;20071;-85
2022/05/30 05:16:34;;;;;;;3.80;2.00;;;8.80;99.90;;;;;;5054062;28;20372;-85
2022/05/30 05:19:00;;;;;;;3.55;2.10;;;8.80;99.90;;;;;;5021533;28;20127;-85
2022/05/30 05:21:32;;;;;;;4.07;2.03;;;8.90;99.90;;;;;;5024255;28;20045;-86
2022/05/30 05:23:59;;;;;;;6.93;2.33;;;8.90;99.90;;;;;;5040521;28;20044;-84
2022/05/30 05:26:25;;;;;;;4.28;1.98;;;8.90;99.90;;;;;;5023862;28;20127;-85
2022/05/30 05:28:51;;;;;;;6.53;2.10;;;8.90;99.90;;;;;;5057116;28;20110;-85
2022/05/30 05:31:21;;;;;;;5.25;2.33;;;9.00;99.90;;;;;;5045081;28;20040;-85
2022/05/30 05:33:46;;;;;;;5.78;2.40;;;9.10;99.90;;;;;;5040455;28;20033;-85
2022/05/30 05:36:17;;;;;;;5.22;2.42;;;9.40;99.90;;;;;;5040296;28;20040;-85
2022/05/30 05:38:42;;;;;;;5.20;2.60;;;10.00;99.90;;;;;;5024672;28;20135;-86
2022/05/30 05:41:08;;;;;;;5.20;2.57;;;9.70;99.90;;;;;;5040121;28;20182;-85
2022/05/30 05:43:34;;;;;;;5.78;2.17;;;9.80;99.90;;;;;;5040167;28;20040;-85
2022/05/30 05:46:00;;;;;;;4.43;2.17;;;9.80;99.90;;;;;;5040237;28;20048;-86
2022/05/30 05:48:25;;;;;;;4.17;2.40;;;9.90;99.90;;;;;;5040351;28;20044;-85
2022/05/30 05:50:51;;;;;;;6.50;2.37;;;10.40;99.90;;;;;;5040134;28;20457;-85
2022/05/30 05:53:17;;;;;;;3.90;1.90;;;10.00;99.90;;;;;;5056376;28;20554;-85
2022/05/30 05:55:42;;;;;;;3.43;2.00;;;10.10;99.90;;;;;;5023808;28;20503;-85
2022/05/30 05:58:08;;;;;;;3.43;1.97;;;10.10;99.90;;;;;;5007450;28;20361;-85
2022/05/30 06:00:34;;;;;;;8.23;2.38;;;10.20;99.90;;;;;;5039988;28;20043;-85
2022/05/30 06:03:00;;;;;;;3.60;1.90;;;10.30;99.90;;;;;;5039804;28;20100;-85
2022/05/30 06:05:26;;;;;;;3.03;1.50;;;10.30;99.90;;;;;;5056866;28;20068;-85
2022/05/30 06:07:52;;;;;;;3.67;1.80;;;10.60;99.90;;;;;;5039650;28;20032;-85
2022/05/30 06:10:18;;;;;;;3.65;1.58;;;10.90;99.90;;;;;;5044171;28;20076;-86
2022/05/30 06:12:46;;;;;;;4.97;1.70;;;10.80;99.90;;;;;;5039665;28;20043;-85
2022/05/30 06:15:16;;;;;;;2.65;1.30;;;11.00;99.90;;;;;;5039552;28;20040;-86
2022/05/30 06:17:44;;;;;;;2.22;1.30;;;11.20;99.90;;;;;;5039576;28;20044;-86
2022/05/30 06:20:13;;;;;;;4.53;1.45;;;11.20;99.90;;;;;;5059788;28;20050;-85
2022/05/30 06:22:39;;;;;;;2.35;1.27;;;11.20;99.90;;;;;;5056262;28;20082;-85
2022/05/30 06:25:06;;;;;;;3.88;1.30;;;11.30;99.90;;;;;;5039369;28;20543;-85
2022/05/30 06:27:32;;;;;;;1.45;1.05;;;11.40;99.90;;;;;;5059781;28;20044;-85
2022/05/30 06:29:58;;;;;;;3.53;1.10;;;11.60;99.90;;;;;;5040363;28;20044;-86
2022/05/30 06:32:24;;;;;;;1.67;0.95;;;12.00;99.90;;;;;;5038596;28;20059;-85
2022/05/30 06:34:49;;;;;;;4.77;1.00;;;12.70;99.90;;;;;;5056238;28;20174;-85
2022/05/30 06:37:15;;;;;;;1.25;0.45;;;13.30;99.90;;;;;;5055949;28;20040;-85
2022/05/30 06:39:40;;;;;;;3.70;0.60;;;13.80;99.90;;;;;;5039545;28;20036;-86
2022/05/30 06:42:11;;;;;;;3.85;0.60;;;13.80;99.90;;;;;;5038933;28;20036;-86
2022/05/30 06:44:37;;;;;;;3.83;1.10;;;13.70;99.90;;;;;;5055949;28;20510;-85
2022/05/30 06:47:04;;;;;;;1.52;0.50;;;13.40;99.90;;;;;;5055446;28;20045;-85
2022/05/30 06:49:30;;;;;;;2.90;0.68;;;13.10;99.90;;;;;;5038957;28;20040;-85
2022/05/30 06:51:56;;;;;;;1.17;0.45;;;12.90;99.90;;;;;;5055904;28;20113;-85
2022/05/30 06:54:22;;;;;;;1.05;0.40;;;12.80;99.90;;;;;;5059749;28;20052;-85
2022/05/30 06:59:33;;;;;;;3.30;0.80;;;12.70;99.90;;;;;;5055577;28;20046;-85
2022/05/30 07:02:00;;;;;;;3.70;0.85;;;12.60;99.90;;;;;;5055328;28;20139;-86
2022/05/30 07:04:29;;;;;;;2.67;0.68;;;12.60;99.90;;;;;;5060612;28;20488;-86
2022/05/30 07:06:54;;;;;;;3.83;0.70;;;12.50;99.90;;;;;;5039599;28;20044;-86
2022/05/30 07:09:20;;;;;;;2.07;0.60;;;12.40;99.90;;;;;;5038510;28;20123;-85
2022/05/30 07:11:46;;;;;;;1.15;0.50;;;12.40;99.90;;;;;;5042428;28;20289;-86
2022/05/30 07:14:12;;;;;;;2.20;0.50;;;12.40;99.90;;;;;;5056123;28;20480;-85
2022/05/30 07:16:39;;;;;;;1.83;0.60;;;12.30;99.90;;;;;;5038685;28;20047;-85
2022/05/30 07:19:05;;;;;;;1.15;0.70;;;12.20;99.90;;;;;;5038274;28;20078;-86
2022/05/30 07:21:31;;;;;;;2.90;0.73;;;12.20;99.90;;;;;;5038999;28;20505;-85
2022/05/30 07:23:57;;;;;;;3.65;0.60;;;12.10;99.90;;;;;;5055101;28;20125;-85
2022/05/30 07:26:23;;;;;;;3.25;0.70;;;12.10;99.90;;;;;;5054682;28;20142;-85
2022/05/30 07:28:51;;;;;;;2.63;0.80;;;12.10;99.90;;;;;;5054978;28;20098;-85
2022/05/30 07:31:19;;;;;;;2.05;0.75;;;12.00;99.90;;;;;;5038207;28;20037;-85
2022/05/30 07:33:48;;;;;;;2.47;0.52;;;11.70;99.90;;;;;;5054755;28;20071;-85
2022/05/30 07:36:26;;;;;;;1.98;0.60;;;11.40;99.90;;;;;;5054514;28;20055;-85
2022/05/30 07:38:53;;;;;;;2.85;0.50;;;11.30;99.90;;;;;;5042731;28;20036;-86
2022/05/30 07:41:20;;;;;;;1.77;0.50;;;11.30;99.90;;;;;;5054539;28;20044;-85
2022/05/30 07:43:47;;;;;;;1.73;0.43;;;11.30;99.90;;;;;;5054566;28;20048;-86
2022/05/30 07:46:14;;;;;;;1.25;0.47;;;11.30;99.90;;;;;;5054457;28;20040;-86
2022/05/30 07:48:41;;;;;;;0.90;0.38;;;11.30;99.90;;;;;;5054551;28;20051;-85
2022/05/30 07:51:08;;;;;;;3.30;0.55;;;11.50;99.90;;;;;;5054358;28;20052;-84
2022/05/30 07:53:35;;;;;;;2.35;0.55;;;11.50;99.90;;;;;;5051027;28;20056;-85
2022/05/30 07:56:07;;;;;;;1.27;0.47;;;11.80;99.90;;;;;;5034763;28;20379;-85
2022/05/30 07:58:33;;;;;;;0.70;0.40;;;12.20;99.90;;;;;;5034982;28;20045;-83
2022/05/30 08:01:00;;;;;;;1.40;0.50;;;12.60;99.90;;;;;;5051339;28;20049;-84
2022/05/30 08:03:26;;;;;;;1.73;0.60;;;13.00;99.90;;;;;;5050909;28;20044;-84
2022/05/30 08:06:05;;;;;;;2.60;0.70;;;13.40;99.90;;;;;;5034623;28;20531;-84
2022/05/30 08:08:31;;;;;;;2.38;0.35;;;13.80;99.90;;;;;;5034287;28;20049;-84
2022/05/30 08:10:57;;;;;;;1.23;0.50;;;14.10;99.90;;;;;;5034751;28;20124;-85
2022/05/30 08:13:23;;;;;;;3.30;1.03;;;14.00;99.90;;;;;;5017704;28;20134;-84
2022/05/30 08:15:49;;;;;;;1.92;0.40;;;14.00;99.90;;;;;;5051268;28;20275;-85
2022/05/30 08:18:16;;;;;;;5.20;0.70;;;13.90;99.90;;;;;;5047932;28;20397;-85
2022/05/30 08:20:43;;;;;;;0.90;0.47;;;13.80;99.90;;;;;;5013628;28;20038;-84
2022/05/30 08:23:09;;;;;;;1.30;0.60;;;13.80;99.90;;;;;;5031141;28;20084;-85
2022/05/30 08:25:36;;;;;;;1.67;0.50;;;14.20;99.90;;;;;;5015353;28;20070;-85
2022/05/30 08:28:01;;;;;;;2.15;0.47;;;14.40;99.90;;;;;;5030730;28;20407;-84
2022/05/30 08:30:27;;;;;;;1.23;0.52;;;14.60;99.90;;;;;;4997997;28;20037;-85
2022/05/30 08:32:53;;;;;;;1.67;0.40;;;14.70;99.90;;;;;;5014527;28;20033;-85
2022/05/30 08:35:19;;;;;;;2.10;0.30;;;14.30;99.90;;;;;;5014067;28;20045;-85
2022/05/30 08:37:46;;;;;;;1.35;0.25;;;14.00;99.90;;;;;;5031089;28;20505;-84
2022/05/30 08:43:13;;;;;;;1.98;0.35;;;13.30;99.90;;;;;;5030937;28;20045;-84
2022/05/30 08:45:39;;;;;;;2.28;0.40;;;13.00;99.90;;;;;;5030968;28;20037;-84
2022/05/30 08:48:14;;;;;;;1.08;0.30;;;12.70;99.90;;;;;;5030286;28;20046;-84
2022/05/30 08:50:56;;;;;;;1.25;0.40;;;12.50;99.90;;;;;;5030252;28;20038;-84
2022/05/30 08:53:38;;;;;;;1.05;0.40;;;12.40;99.90;;;;;;5022222;28;20133;-84
2022/05/30 08:56:10;;;;;;;1.10;0.30;;;12.20;99.90;;;;;;5074232;28;20037;-84
2022/05/30 08:58:53;;;;;;;2.00;0.52;;;12.10;99.90;;;;;;5061286;28;20519;-84
2022/05/30 09:01:39;;;;;;;1.55;0.50;;;12.10;99.90;;;;;;5073976;28;20078;-84
2022/05/30 09:04:25;;;;;;;1.88;0.60;;;12.20;99.90;;;;;;5073988;28;20037;-84
2022/05/30 09:07:00;;;;;;;3.88;0.50;;;12.20;99.90;;;;;;5073819;28;20483;-85
2022/05/30 09:09:50;;;;;;;6.60;0.70;;;12.10;99.90;;;;;;5056796;28;20135;-84
2022/05/30 09:12:27;;;;;;;1.83;0.65;;;12.20;99.90;;;;;;5073612;28;20075;-85
2022/05/30 09:15:06;;;;;;;1.52;0.60;;;12.30;99.90;;;;;;5057403;28;20037;-86
2022/05/30 09:17:44;;;;;;;3.22;0.70;;;12.40;99.90;;;;;;5057887;28;20511;-86
2022/05/30 09:20:13;;;;;;;3.58;0.70;;;12.40;99.90;;;;;;5074178;28;20049;-87
2022/05/30 09:22:40;;;;;;;2.65;0.70;;;12.60;99.90;;;;;;5074637;28;20055;-85
2022/05/30 09:27:52;;;;;;;3.72;0.90;;;12.70;99.90;;;;;;5074152;28;19962;-85
2022/05/30 09:30:25;;;;;;;4.53;1.50;;;12.80;99.90;;;;;;5057045;28;20052;-85
2022/05/30 09:33:00;;;;;;;3.22;0.80;;;12.80;99.90;;;;;;5057614;28;20314;-85
2022/05/30 09:35:29;;;;;;;1.48;0.60;;;13.00;99.90;;;;;;5073939;28;20114;-85
2022/05/30 09:38:16;;;;;;;2.85;0.65;;;13.10;99.90;;;;;;5074326;28;20489;-85
2022/05/30 09:40:47;;;;;;;2.83;0.50;;;13.20;99.90;;;;;;5057351;28;20424;-87
2022/05/30 09:43:24;;;;;;;1.33;0.50;;;13.40;99.90;;;;;;5073596;28;20079;-86
2022/05/30 09:45:50;;;;;;;1.38;0.47;;;13.50;99.90;;;;;;5078718;28;20040;-87
2022/05/30 09:48:21;;;;;;;2.75;0.52;;;13.60;99.90;;;;;;5073482;28;20037;-86
2022/05/30 09:50:53;;;;;;;2.28;0.63;;;13.80;99.90;;;;;;5057125;28;20041;-85
2022/05/30 09:53:38;;;;;;;2.63;0.70;;;13.90;99.90;;;;;;5073126;28;20080;-85
2022/05/30 09:56:04;;;;;;;1.63;0.52;;;14.10;99.90;;;;;;5073388;28;20047;-86
2022/05/30 09:58:59;;;;;;;2.28;0.65;;;14.40;99.90;;;;;;5040454;28;20048;-86
2022/05/30 10:01:28;;;;;;;1.85;0.43;;;14.70;99.90;;;;;;5073439;28;20045;-86
2022/05/30 10:03:59;;;;;;;0.50;0.30;;;15.10;99.90;;;;;;5073661;28;20161;-86
2022/05/30 10:06:27;;;;;;;1.45;0.50;;;15.30;99.90;;;;;;5057610;28;20048;-86
2022/05/30 10:09:22;;;;;;;2.38;0.50;;;15.50;99.90;;;;;;5057013;28;20048;-86
2022/05/30 10:11:54;;;;;;;2.10;0.50;;;15.60;99.90;;;;;;5056770;28;20091;-86
2022/05/30 10:14:23;;;;;;;1.50;0.40;;;15.90;99.90;;;;;;5078288;28;20044;-86
2022/05/30 10:16:51;;;;;;;3.35;0.55;;;16.20;99.90;;;;;;5073524;28;20043;-86
2022/05/30 10:19:30;;;;;;;3.22;0.70;;;16.30;99.90;;;;;;5072897;28;20127;-86
2022/05/30 10:28:30;;;;;;;3.13;0.50;;;16.20;99.90;;;;;;5073051;28;20055;-87
2022/05/30 10:31:19;;;;;;;1.65;0.35;;;15.90;99.90;;;;;;5072910;28;20063;-87
2022/05/30 10:34:04;;;;;;;5.20;0.70;;;15.70;99.90;;;;;;5056092;28;20127;-86
2022/05/30 10:36:32;;;;;;;1.52;0.50;;;15.50;99.90;;;;;;5072863;28;20072;-85
2022/05/30 10:39:01;;;;;;;0.88;0.40;;;15.10;99.90;;;;;;5055829;28;20093;-85
2022/05/30 10:41:44;;;;;;;2.95;0.50;;;14.50;99.90;;;;;;5072274;28;20471;-86
2022/05/30 10:44:27;;;;;;;2.78;0.43;;;13.80;99.90;;;;;;5061140;28;20138;-86
2022/05/30 10:47:17;;;;;;;1.05;0.40;;;13.20;99.90;;;;;;5055987;28;20515;-86
2022/05/30 10:50:07;;;;;;;3.40;0.70;;;12.70;99.90;;;;;;5055566;28;20040;-84
2022/05/30 10:52:39;;;;;;;2.60;0.60;;;12.50;99.90;;;;;;5036180;28;20044;-85
2022/05/30 10:55:14;;;;;;;2.10;0.75;;;12.30;99.90;;;;;;5072017;28;20416;-85
2022/05/30 10:57:44;;;;;;;7.05;0.80;;;12.30;99.90;;;;;;5072369;28;20044;-84
2022/05/30 11:00:16;;;;;;;3.05;0.70;;;12.30;99.90;;;;;;5076519;28;20074;-84
2022/05/30 11:02:47;;;;;;;1.58;0.43;;;12.30;99.90;;;;;;5055872;28;20075;-84
2022/05/30 11:05:29;;;;;;;0.93;0.40;;;12.30;99.90;;;;;;5072033;28;20044;-85
2022/05/30 11:08:42;;;;;;;1.45;0.63;;;12.40;99.90;;;;;;5055850;28;20495;-85
2022/05/30 11:11:18;;;;;;;2.65;0.63;;;12.60;99.90;;;;;;5049946;28;20052;-84
2022/05/30 11:13:55;;;;;;;1.98;0.50;;;12.80;99.90;;;;;;5072530;28;20044;-85
2022/05/30 11:16:52;;;;;;;1.70;0.40;;;12.80;99.90;;;;;;5071729;28;20405;-85
2022/05/30 11:19:46;;;;;;;0.98;0.32;;;12.90;99.90;;;;;;5055183;28;20047;-85
2022/05/30 11:22:33;;;;;;;0.70;0.40;;;13.00;99.90;;;;;;5071421;28;20032;-85
2022/05/30 11:24:59;;;;;;;1.35;0.45;;;13.10;99.90;;;;;;5047226;28;20521;-84
2022/05/30 11:28:02;;;;;;;1.50;0.47;;;13.10;99.90;;;;;;5065326;28;20079;-84
2022/05/30 11:31:05;;;;;;;0.85;0.57;;;13.10;99.90;;;;;;5062055;28;20056;-83
2022/05/30 11:34:09;;;;;;;1.65;0.40;;;13.20;99.90;;;;;;5058629;28;20503;-85
2022/05/30 11:36:38;;;;;;;1.67;0.40;;;13.10;99.90;;;;;;5061734;28;20135;-86
2022/05/30 11:39:33;;;;;;;0.82;0.30;;;12.90;99.90;;;;;;5070991;28;20058;-86
2022/05/30 11:42:21;;;;;;;1.40;0.40;;;12.90;99.90;;;;;;5054595;28;20036;-85
2022/05/30 11:45:29;;;;;;;0.60;0.38;;;13.00;99.90;;;;;;5054771;28;20040;-85
2022/05/30 11:48:13;;;;;;;2.50;0.40;;;13.10;99.90;;;;;;5014887;28;20047;-86
2022/05/30 11:50:56;;;;;;;1.10;0.35;;;13.20;99.90;;;;;;5014844;28;20038;-86
2022/05/30 11:53:43;;;;;;;0.75;0.40;;;13.20;99.90;;;;;;5010817;28;20053;-85
2022/05/30 11:56:18;;;;;;;1.10;0.40;;;13.30;99.90;;;;;;4994990;28;20117;-84
2022/05/30 11:59:07;;;;;;;1.38;0.43;;;13.30;99.90;;;;;;5011543;28;20041;-85
2022/05/30 12:01:36;;;;;;;1.30;0.50;;;13.40;99.90;;;;;;5011210;28;20046;-85
2022/05/30 12:04:31;;;;;;;0.63;0.38;;;13.50;99.90;;;;;;5011352;28;20559;-84
2022/05/30 12:07:38;;;;;;;1.80;0.40;;;13.70;99.90;;;;;;5011581;28;20041;-84
2022/05/30 12:10:43;;;;;;;0.80;0.30;;;13.80;99.90;;;;;;5010702;28;20042;-85
2022/05/30 12:13:36;;;;;;;3.60;0.73;;;13.90;99.90;;;;;;4988969;28;20497;-85
2022/05/30 12:16:12;;;;;;;2.40;0.50;;;13.80;99.90;;;;;;5011318;28;20371;-85
2022/05/30 12:24:53;;;;;;;1.55;0.80;;;13.50;99.90;;;;;;5032788;28;20049;-86
2022/05/30 12:27:30;;;;;;;1.60;0.70;;;13.60;99.90;;;;;;5014181;28;20104;-86
2022/05/30 12:29:57;;;;;;;1.50;0.50;;;13.70;99.90;;;;;;5016480;28;20045;-85
2022/05/30 12:32:29;;;;;;;1.20;0.55;;;13.70;99.90;;;;;;5034749;28;20607;-86
2022/05/30 12:35:01;;;;;;;1.33;0.50;;;13.70;99.90;;;;;;5047754;28;20041;-86
2022/05/30 12:37:45;;;;;;;1.13;0.60;;;13.70;99.90;;;;;;5054392;28;20041;-86
2022/05/30 12:40:32;;;;;;;2.20;0.60;;;13.80;99.90;;;;;;5037349;28;20041;-85
2022/05/30 12:43:16;;;;;;;1.45;0.60;;;13.70;99.90;;;;;;5038091;28;20083;-85
2022/05/30 12:45:51;;;;;;;2.30;0.60;;;13.90;99.90;;;;;;5054850;28;20053;-86
2022/05/30 12:48:31;;;;;;;0.82;0.40;;;14.00;99.90;;;;;;5054372;28;20076;-86
2022/05/30 12:51:35;;;;;;;0.82;0.40;;;14.10;99.90;;;;;;5041299;28;20041;-87
2022/05/30 12:54:01;;;;;;;0.50;0.28;;;14.30;99.90;;;;;;5034238;28;20060;-86
2022/05/30 12:56:39;;;;;;;1.37;0.40;;;14.50;99.90;;;;;;5019308;28;20124;-86
2022/05/30 12:59:28;;;;;;;1.25;0.50;;;14.50;99.90;;;;;;5026148;28;20776;-85
2022/05/30 13:01:57;;;;;;;2.05;0.70;;;14.60;99.90;;;;;;5020333;28;20038;-87
2022/05/30 13:04:26;;;;;;;2.33;1.20;;;14.90;99.90;;;;;;5034602;28;20412;-86
2022/05/30 13:06:57;;;;;;;1.13;0.55;;;15.30;99.90;;;;;;5034691;28;20050;-87
2022/05/30 13:09:26;;;;;;;1.48;0.55;;;15.50;99.90;;;;;;5034355;28;20103;-87
2022/05/30 13:12:11;;;;;;;1.23;0.65;;;15.90;99.90;;;;;;5039493;28;20041;-87
2022/05/30 13:14:39;;;;;;;1.73;0.68;;;16.20;99.90;;;;;;5017871;28;20037;-86
2022/05/30 13:17:16;;;;;;;0.43;0.22;;;16.00;99.90;;;;;;5017750;28;20037;-86
2022/05/30 13:19:45;;;;;;;1.35;0.30;;;15.70;99.90;;;;;;5023139;28;20091;-87
2022/05/30 13:22:12;;;;;;;1.23;0.40;;;15.50;99.90;;;;;;5036876;28;20044;-87
2022/05/30 13:24:38;;;;;;;1.48;0.40;;;15.10;99.90;;;;;;5020472;28;20049;-87
2022/05/30 13:27:05;;;;;;;0.45;0.30;;;15.00;99.90;;;;;;5017873;28;20520;-86
2022/05/30 13:29:35;;;;;;;1.08;0.32;;;14.70;99.90;;;;;;5034166;28;20038;-86
2022/05/30 13:32:04;;;;;;;1.55;0.38;;;14.60;99.90;;;;;;5033718;28;20038;-85
2022/05/30 13:34:32;;;;;;;1.55;0.40;;;14.40;99.90;;;;;;5001030;28;20033;-85
2022/05/30 13:37:00;;;;;;;1.33;0.50;;;14.50;99.90;;;;;;5034126;28;20052;-86
2022/05/30 13:39:26;;;;;;;2.47;0.50;;;14.40;99.90;;;;;;5016711;28;20046;-86